createdAt,value
2023-01-09T00:02:07.687Z,98884.53
2023-01-09T00:04:38.281Z,98892.28
2023-01-09T00:07:10.467Z,98877.59
2023-01-09T00:09:42.768Z,98894.50
2023-01-09T00:12:33.145Z,98883.09
2023-01-09T00:15:02.931Z,98887.56
2023-01-09T00:17:32.037Z,98874.53
2023-01-09T00:20:06.949Z,98875.75
2023-01-09T00:22:36.263Z,98885.94
2023-01-09T00:25:11.461Z,98884.09
2023-01-09T00:27:40.769Z,98884.72
2023-01-09T00:30:12.947Z,98884.72
2023-01-09T00:32:43.171Z,98882.69
2023-01-09T00:35:17.551Z,98878.63
2023-01-09T00:38:12.329Z,98882.91
2023-01-09T00:40:47.409Z,98876.16
2023-01-09T00:43:17.918Z,98870.88
2023-01-09T00:45:49.483Z,98870.28
2023-01-09T00:48:27.029Z,98868.22
2023-01-09T00:50:59.959Z,98879.44
2023-01-09T00:53:33.854Z,98882.09
2023-01-09T00:56:10.813Z,98880.47
2023-01-09T00:58:39.499Z,98873.13
2023-01-09T01:01:12.920Z,98876.81
2023-01-09T01:03:44.079Z,98877.81
2023-01-09T01:06:31.400Z,98863.53
2023-01-09T01:09:00.800Z,98877.19
2023-01-09T01:11:31.914Z,98870.88
2023-01-09T01:14:03.392Z,98865.56
2023-01-09T01:16:37.707Z,98872.13
2023-01-09T01:19:07.830Z,98867.41
2023-01-09T01:21:36.619Z,98860.28
2023-01-09T01:24:08.729Z,98861.31
2023-01-09T01:26:39.113Z,98867.41
2023-01-09T01:29:07.799Z,98863.13
2023-01-09T01:31:39.271Z,98856.41
2023-01-09T01:34:09.132Z,98847.00
2023-01-09T01:36:37.872Z,98854.75
2023-01-09T01:39:07.053Z,98862.72
2023-01-09T01:41:35.623Z,98859.69
2023-01-09T01:44:08.806Z,98853.31
2023-01-09T01:46:39.757Z,98840.88
2023-01-09T01:49:12.296Z,98836.81
2023-01-09T01:51:43.836Z,98846.81
2023-01-09T01:54:19.252Z,98848.44
2023-01-09T01:56:51.797Z,98846.00
2023-01-09T01:59:29.240Z,98840.69
2023-01-09T02:02:01.890Z,98845.78
2023-01-09T02:04:32.222Z,98841.91
2023-01-09T02:07:08.409Z,98850.91
2023-01-09T02:09:38.176Z,98848.44
2023-01-09T02:12:19.506Z,98838.66
2023-01-09T02:14:53.171Z,98846.97
2023-01-09T02:18:03.747Z,98853.53
2023-01-09T02:20:44.604Z,98854.75
2023-01-09T02:23:46.776Z,98854.75
2023-01-09T02:26:53.540Z,98854.16
2023-01-09T02:29:59.602Z,98847.22
2023-01-09T02:32:51.331Z,98841.91
2023-01-09T02:35:34.614Z,98852.31
2023-01-09T02:38:20.451Z,98854.34
2023-01-09T02:40:55.331Z,98848.00
2023-01-09T02:43:25.068Z,98853.31
2023-01-09T02:46:00.667Z,98831.91
2023-01-09T02:48:33.592Z,98834.97
2023-01-09T02:51:11.222Z,98829.69
2023-01-09T02:54:04.781Z,98838.41
2023-01-09T02:56:58.872Z,98834.97
2023-01-09T02:59:32.557Z,98814.97
2023-01-09T03:02:22.139Z,98829.66
2023-01-09T03:05:02.699Z,98819.25
2023-01-09T03:07:37.273Z,98825.78
2023-01-09T03:10:24.549Z,98822.75
2023-01-09T03:12:58.757Z,98826.00
2023-01-09T03:15:35.536Z,98831.31
2023-01-09T03:18:09.324Z,98846.78
2023-01-09T03:20:41.580Z,98842.31
2023-01-09T03:23:11.243Z,98851.28
2023-01-09T03:25:40.088Z,98856.81
2023-01-09T03:28:14.941Z,98843.97
2023-01-09T03:30:44.605Z,98856.59
2023-01-09T03:33:13.383Z,98854.13
2023-01-09T03:35:46.566Z,98859.66
2023-01-09T03:38:15.424Z,98863.34
2023-01-09T03:40:46.578Z,98856.59
2023-01-09T03:43:15.902Z,98859.25
2023-01-09T03:45:47.468Z,98857.81
2023-01-09T03:48:16.902Z,98854.13
2023-01-09T03:50:47.829Z,98860.66
2023-01-09T03:53:18.050Z,98852.91
2023-01-09T03:55:48.937Z,98856.16
2023-01-09T03:58:19.503Z,98868.19
2023-01-09T04:00:51.224Z,98867.38
2023-01-09T04:03:22.898Z,98857.19
2023-01-09T04:05:53.626Z,98859.84
2023-01-09T04:08:22.959Z,98851.72
2023-01-09T04:10:54.507Z,98851.09
2023-01-09T04:13:23.235Z,98851.72
2023-01-09T04:15:52.285Z,98858.03
2023-01-09T04:18:24.057Z,98864.34
2023-01-09T04:20:55.447Z,98872.72
2023-01-09T04:23:25.055Z,98860.69
2023-01-09T04:25:53.871Z,98878.22
2023-01-09T04:28:23.135Z,98886.78
2023-01-09T04:30:53.180Z,98888.03
2023-01-09T04:33:22.793Z,98896.78
2023-01-09T04:35:51.657Z,98899.00
2023-01-09T04:38:23.977Z,98899.41
2023-01-09T04:40:54.428Z,98897.97
2023-01-09T04:43:25.239Z,98907.97
2023-01-09T04:45:59.543Z,98897.53
2023-01-09T04:48:28.355Z,98902.25
2023-01-09T04:50:57.837Z,98888.56
2023-01-09T04:53:28.118Z,98888.53
2023-01-09T04:55:58.651Z,98880.59
2023-01-09T04:58:27.458Z,98879.78
2023-01-09T05:00:58.843Z,98881.84
2023-01-09T05:03:27.794Z,98873.28
2023-01-09T05:19:44.792Z,98877.38
2023-01-09T05:22:27.739Z,98887.97
2023-01-09T05:25:38.631Z,98894.03
2023-01-09T05:28:21.326Z,98887.72
2023-01-09T05:30:54.321Z,98889.38
2023-01-09T05:33:24.943Z,98889.16
2023-01-09T05:39:59.813Z,98886.53
2023-01-09T05:42:33.037Z,98889.59
2023-01-09T05:45:25.031Z,98878.56
2023-01-09T05:48:04.537Z,98884.28
2023-01-09T05:50:56.431Z,98877.38
2023-01-09T06:14:50.275Z,98904.22
2023-01-09T06:17:20.484Z,98906.84
2023-01-09T06:19:53.161Z,98910.94
2023-01-09T06:22:38.297Z,98903.59
2023-01-09T06:25:09.226Z,98903.00
2023-01-09T06:27:55.943Z,98896.03
2023-01-09T06:30:27.530Z,98897.22
2023-01-09T06:33:04.869Z,98897.84
2023-01-09T06:35:36.498Z,98883.00
2023-01-09T06:38:13.279Z,98888.28
2023-01-09T06:40:53.593Z,98919.28
2023-01-09T06:43:25.264Z,98918.44
2023-01-09T06:46:10.862Z,98908.25
2023-01-09T06:48:49.934Z,98910.50
2023-01-09T06:51:30.558Z,98915.59
2023-01-09T06:53:59.777Z,98911.31
2023-01-09T06:59:41.104Z,98913.34
2023-01-09T07:02:19.543Z,98908.06
2023-01-09T07:04:50.022Z,98898.88
2023-01-09T07:07:20.050Z,98896.22
2023-01-09T07:09:51.470Z,98897.22
2023-01-09T07:12:19.800Z,98891.94
2023-01-09T07:14:53.347Z,98871.97
2023-01-09T07:17:23.219Z,98861.97
2023-01-09T07:19:51.988Z,98863.34
2023-01-09T07:22:23.909Z,98865.38
2023-01-09T07:24:54.356Z,98865.00
2023-01-09T07:27:23.187Z,98876.41
2023-01-09T07:29:53.642Z,98884.91
2023-01-09T07:32:24.073Z,98894.53
2023-01-09T07:34:52.968Z,98895.94
2023-01-09T07:37:21.692Z,98896.56
2023-01-09T07:39:50.514Z,98904.31
2023-01-09T07:42:19.174Z,98910.63
2023-01-09T07:44:48.008Z,98905.56
2023-01-09T07:47:19.748Z,98900.66
2023-01-09T07:49:53.472Z,98907.00
2023-01-09T07:52:24.413Z,98908.00
2023-01-09T07:54:53.153Z,98907.63
2023-01-09T07:57:21.774Z,98892.38
2023-01-09T07:59:50.661Z,98888.66
2023-01-09T08:02:19.541Z,98903.16
2023-01-09T08:04:49.570Z,98904.16
2023-01-09T08:07:18.445Z,98909.47
2023-01-09T08:09:46.896Z,98910.09
2023-01-09T08:12:15.484Z,98913.75
2023-01-09T08:14:43.760Z,98912.91
2023-01-09T08:17:13.886Z,98904.56
2023-01-09T08:19:45.224Z,98898.88
2023-01-09T08:22:15.484Z,98902.72
2023-01-09T08:24:43.970Z,98896.22
2023-01-09T08:27:12.567Z,98899.50
2023-01-09T08:29:40.994Z,98893.56
2023-01-09T08:32:09.792Z,98897.22
2023-01-09T08:34:41.338Z,98890.31
2023-01-09T08:37:11.710Z,98890.34
2023-01-09T08:39:41.639Z,98893.41
2023-01-09T08:42:27.453Z,98900.16
2023-01-09T08:45:13.187Z,98898.31
2023-01-09T08:47:41.892Z,98891.81
2023-01-09T08:50:13.313Z,98893.66
2023-01-09T08:52:42.273Z,98890.44
2023-01-09T08:55:14.184Z,98886.97
2023-01-09T08:57:50.091Z,98886.75
2023-01-09T09:00:25.859Z,98893.69
2023-01-09T09:02:55.718Z,98886.16
2023-01-09T09:05:37.206Z,98893.28
2023-01-09T09:08:08.991Z,98892.28
2023-01-09T09:10:39.086Z,98894.13
2023-01-09T09:13:08.000Z,98885.13
2023-01-09T09:15:39.237Z,98879.00
2023-01-09T09:18:23.371Z,98882.69
2023-01-09T09:20:52.167Z,98893.50
2023-01-09T09:23:20.611Z,98887.78
2023-01-09T09:25:53.620Z,98872.09
2023-01-09T09:28:22.418Z,98881.09
2023-01-09T09:30:51.068Z,98880.06
2023-01-09T09:33:20.182Z,98871.69
2023-01-09T09:35:48.741Z,98874.34
2023-01-09T09:38:20.217Z,98889.41
2023-01-09T09:41:34.352Z,98881.69
2023-01-09T09:44:36.803Z,98877.00
2023-01-09T09:47:18.237Z,98874.16
2023-01-09T09:49:58.549Z,98880.88
2023-01-09T09:52:35.540Z,98890.84
2023-01-09T09:55:13.585Z,98881.88
2023-01-09T09:57:45.554Z,98878.63
2023-01-09T10:00:19.415Z,98885.38
2023-01-09T10:02:53.793Z,98873.50
2023-01-09T10:05:28.865Z,98882.28
2023-01-09T10:08:14.951Z,98886.75
2023-01-09T10:10:50.950Z,98873.50
2023-01-09T10:13:42.944Z,98876.56
2023-01-09T10:16:30.330Z,98882.47
2023-01-09T10:19:12.261Z,98876.38
2023-01-09T10:21:47.491Z,98873.72
2023-01-09T10:24:29.549Z,98879.44
2023-01-09T10:26:59.632Z,98876.97
2023-01-09T10:29:54.721Z,98883.91
2023-01-09T10:32:39.862Z,98884.53
2023-01-09T10:36:05.210Z,98886.75
2023-01-09T10:38:40.460Z,98885.53
2023-01-09T10:41:15.393Z,98884.72
2023-01-09T10:43:49.411Z,98878.59
2023-01-09T10:46:24.885Z,98874.31
2023-01-09T10:49:00.088Z,98879.19
2023-01-09T10:51:36.349Z,98871.25
2023-01-09T10:54:06.991Z,98875.53
2023-01-09T10:56:45.356Z,98869.16
2023-01-09T10:59:13.801Z,98869.16
2023-01-09T11:01:44.207Z,98866.72
2023-01-09T11:04:27.747Z,98863.22
2023-01-09T11:07:01.261Z,98849.13
2023-01-09T11:10:03.178Z,98858.31
2023-01-09T11:12:33.718Z,98844.63
2023-01-09T11:15:31.170Z,98845.28
2023-01-09T11:18:20.210Z,98837.50
2023-01-09T11:20:49.221Z,98851.78
2023-01-09T11:23:29.798Z,98838.31
2023-01-09T11:26:02.743Z,98850.34
2023-01-09T11:28:31.605Z,98845.66
2023-01-09T11:31:03.147Z,98855.84
2023-01-09T11:33:43.071Z,98855.84
2023-01-09T11:36:16.278Z,98853.00
2023-01-09T11:38:50.795Z,98853.00
2023-01-09T11:41:23.754Z,98849.94
2023-01-09T11:43:54.377Z,98860.56
2023-01-09T11:46:38.730Z,98860.56
2023-01-09T11:49:23.325Z,98858.09
2023-01-09T11:52:17.263Z,98863.41
2023-01-09T11:54:50.601Z,98858.31
2023-01-09T11:57:19.786Z,98859.75
2023-01-09T11:59:48.270Z,98851.16
2023-01-09T12:02:37.634Z,98851.78
2023-01-09T12:05:18.267Z,98843.00
2023-01-09T12:08:26.868Z,98838.88
2023-01-09T12:11:11.197Z,98837.50
2023-01-09T12:14:00.744Z,98829.72
2023-01-09T12:16:37.749Z,98837.50
2023-01-09T12:19:19.398Z,98834.44
2023-01-09T12:22:00.856Z,98835.25
2023-01-09T12:24:41.546Z,98821.38
2023-01-09T12:27:23.844Z,98825.03
2023-01-09T12:30:12.679Z,98822.41
2023-01-09T12:32:53.264Z,98830.75
2023-01-09T12:35:32.318Z,98822.19
2023-01-09T12:38:22.129Z,98837.69
2023-01-09T12:41:18.026Z,98833.22
2023-01-09T12:44:08.691Z,98837.50
2023-01-09T12:46:46.365Z,98832.19
2023-01-09T12:49:28.074Z,98834.84
2023-01-09T12:52:07.380Z,98836.69
2023-01-09T12:54:45.694Z,98843.22
2023-01-09T12:57:22.546Z,98827.50
2023-01-09T12:59:54.372Z,98828.72
2023-01-09T13:02:28.634Z,98827.69
2023-01-09T13:05:08.652Z,98829.09
2023-01-09T13:07:43.304Z,98827.69
2023-01-09T13:10:25.124Z,98823.81
2023-01-09T13:12:54.902Z,98824.22
2023-01-09T13:15:31.772Z,98817.69
2023-01-09T13:18:06.138Z,98814.63
2023-01-09T13:20:40.254Z,98827.50
2023-01-09T13:23:14.064Z,98816.28
2023-01-09T13:25:46.435Z,98818.50
2023-01-09T13:28:19.187Z,98813.63
2023-01-09T13:31:22.432Z,98826.66
2023-01-09T13:33:55.437Z,98831.16
2023-01-09T13:36:28.276Z,98828.91
2023-01-09T13:39:00.086Z,98820.94
2023-01-09T13:41:54.695Z,98830.75
2023-01-09T13:44:33.729Z,98825.84
2023-01-09T13:47:06.875Z,98828.91
2023-01-09T13:50:01.348Z,98829.72
2023-01-09T13:52:36.998Z,98834.03
2023-01-09T13:55:37.290Z,98832.38
2023-01-09T13:58:28.754Z,98830.56
2023-01-09T14:01:12.278Z,98839.94
2023-01-09T14:03:43.546Z,98842.19
2023-01-09T14:09:20.439Z,98840.13
2023-01-09T14:11:49.891Z,98839.53
2023-01-09T14:14:30.222Z,98845.00
2023-01-09T14:17:00.129Z,98837.03
2023-01-09T14:19:49.206Z,98836.22
2023-01-09T14:22:30.494Z,98833.81
2023-01-09T14:25:09.252Z,98849.34
2023-01-09T14:28:26.274Z,98847.69
2023-01-09T14:31:33.050Z,98844.25
2023-01-09T14:34:32.369Z,98850.34
2023-01-09T14:37:06.603Z,98841.22
2023-01-09T14:39:38.478Z,98851.00
2023-01-09T14:42:13.495Z,98853.81
2023-01-09T14:44:50.644Z,98849.97
2023-01-09T14:47:30.421Z,98844.25
2023-01-09T14:50:09.205Z,98859.34
2023-01-09T14:52:48.106Z,98850.75
2023-01-09T14:55:28.429Z,98849.13
2023-01-09T14:57:59.566Z,98853.63
2023-01-09T15:00:28.611Z,98855.09
2023-01-09T15:05:54.513Z,98847.53
2023-01-09T15:08:29.687Z,98852.44
2023-01-09T15:11:00.579Z,98840.19
2023-01-09T15:13:37.536Z,98835.69
2023-01-09T15:16:08.478Z,98843.03
2023-01-09T15:18:44.385Z,98848.53
2023-01-09T15:24:15.049Z,98843.41
2023-01-09T15:26:44.055Z,98848.72
2023-01-09T15:29:17.937Z,98847.50
2023-01-09T15:31:51.749Z,98842.38
2023-01-09T15:34:28.191Z,98845.66
2023-01-09T15:36:58.028Z,98847.28
2023-01-09T15:39:30.224Z,98850.75
2023-01-09T15:42:17.677Z,98844.84
2023-01-09T15:44:50.797Z,98854.63
2023-01-09T15:47:28.500Z,98851.97
2023-01-09T15:50:00.353Z,98840.34
2023-01-09T15:52:29.407Z,98837.69
2023-01-09T15:55:09.710Z,98837.28
2023-01-09T15:57:41.562Z,98842.19
2023-01-09T16:00:35.810Z,98841.16
2023-01-09T16:03:16.519Z,98847.06
2023-01-09T16:05:50.035Z,98843.19
2023-01-09T16:08:29.751Z,98832.56
2023-01-09T16:11:02.629Z,98836.88
2023-01-09T16:13:35.306Z,98835.44
2023-01-09T16:16:08.359Z,98832.38
2023-01-09T16:18:40.837Z,98831.16
2023-01-09T16:21:41.138Z,98826.84
2023-01-09T16:24:26.794Z,98815.44
2023-01-09T16:27:13.927Z,98816.63
2023-01-09T16:29:50.010Z,98825.22
2023-01-09T16:32:21.486Z,98829.50
2023-01-09T16:34:56.769Z,98825.63
2023-01-09T16:37:27.557Z,98817.28
2023-01-09T16:40:40.984Z,98828.69
2023-01-09T16:43:16.435Z,98829.09
2023-01-09T16:45:50.462Z,98831.56
2023-01-09T16:48:22.974Z,98837.50
2023-01-09T16:50:51.929Z,98840.97
2023-01-09T16:53:28.597Z,98829.94
2023-01-09T16:56:00.039Z,98834.84
2023-01-09T16:58:35.718Z,98823.25
2023-01-09T17:01:08.452Z,98837.53
2023-01-09T17:03:37.384Z,98849.13
2023-01-09T17:06:10.915Z,98843.22
2023-01-09T17:08:47.203Z,98829.94
2023-01-09T17:11:31.781Z,98833.22
2023-01-09T17:14:04.480Z,98848.09
2023-01-09T17:16:37.966Z,98843.00
2023-01-09T17:19:09.367Z,98841.16
2023-01-09T17:21:40.229Z,98843.63
2023-01-09T17:24:30.773Z,98840.13
2023-01-09T17:27:17.412Z,98840.13
2023-01-09T17:29:47.637Z,98838.09
2023-01-09T17:32:18.751Z,98851.34
2023-01-09T17:34:47.852Z,98860.75
2023-01-09T17:37:17.568Z,98846.66
2023-01-09T17:39:48.596Z,98845.66
2023-01-09T17:42:32.506Z,98839.13
2023-01-09T17:45:01.469Z,98842.19
2023-01-09T17:47:31.068Z,98854.63
2023-01-09T17:49:59.989Z,98850.16
2023-01-09T17:52:36.875Z,98846.88
2023-01-09T17:55:12.016Z,98854.44
2023-01-09T17:57:40.841Z,98844.69
2023-01-09T18:00:19.110Z,98848.34
2023-01-09T18:02:55.265Z,98844.28
2023-01-09T18:05:30.189Z,98840.41
2023-01-09T18:08:01.004Z,98846.72
2023-01-09T18:10:31.662Z,98847.75
2023-01-09T18:13:06.001Z,98855.13
2023-01-09T18:15:35.736Z,98851.25
2023-01-09T18:18:06.450Z,98849.81
2023-01-09T18:20:37.994Z,98847.78
2023-01-09T18:23:29.195Z,98849.00
2023-01-09T18:25:59.897Z,98845.53
2023-01-09T18:28:30.473Z,98851.41
2023-01-09T18:30:59.155Z,98852.47
2023-01-09T18:33:28.057Z,98842.88
2023-01-09T18:35:56.645Z,98852.63
2023-01-09T18:38:25.544Z,98857.53
2023-01-09T18:41:02.158Z,98852.06
2023-01-09T18:43:31.540Z,98856.53
2023-01-09T18:46:00.062Z,98864.47
2023-01-09T18:48:28.611Z,98858.16
2023-01-09T18:51:04.790Z,98858.75
2023-01-09T18:53:44.815Z,98851.81
2023-01-09T18:56:51.856Z,98866.31
2023-01-09T18:59:20.671Z,98864.69
2023-01-09T19:01:50.872Z,98860.00
2023-01-09T19:04:19.520Z,98867.13
2023-01-09T19:06:48.089Z,98864.91
2023-01-09T19:09:16.828Z,98872.63
2023-01-09T19:11:47.004Z,98862.25
2023-01-09T19:14:24.936Z,98862.25
2023-01-09T19:16:59.158Z,98864.09
2023-01-09T19:19:27.983Z,98865.94
2023-01-09T19:21:56.495Z,98875.13
2023-01-09T19:24:25.045Z,98872.25
2023-01-09T19:26:55.838Z,98865.31
2023-01-09T19:29:24.661Z,98870.22
2023-01-09T19:31:53.622Z,98870.63
2023-01-09T19:34:22.362Z,98872.25
2023-01-09T19:36:54.352Z,98864.72
2023-01-09T19:39:28.267Z,98875.53
2023-01-09T19:41:59.924Z,98870.44
2023-01-09T19:44:29.072Z,98878.78
2023-01-09T19:46:57.746Z,98874.72
2023-01-09T19:49:26.183Z,98877.56
2023-01-09T19:51:56.059Z,98869.63
2023-01-09T19:54:25.825Z,98875.53
2023-01-09T19:56:54.899Z,98872.06
2023-01-09T19:59:27.387Z,98880.59
2023-01-09T20:01:59.154Z,98881.84
2023-01-09T20:04:48.023Z,98875.53
2023-01-09T20:07:22.161Z,98882.03
2023-01-09T20:09:53.460Z,98874.06
2023-01-09T20:12:21.860Z,98883.47
2023-01-09T20:14:52.782Z,98874.88
2023-01-09T20:17:23.496Z,98879.38
2023-01-09T20:19:54.727Z,98875.50
2023-01-09T20:22:24.752Z,98878.75
2023-01-09T20:24:54.212Z,98871.00
2023-01-09T20:27:24.948Z,98876.72
2023-01-09T20:29:57.421Z,98881.81
2023-01-09T20:32:26.871Z,98868.38
2023-01-09T20:35:01.418Z,98880.59
2023-01-09T20:37:31.596Z,98879.78
2023-01-09T20:40:00.250Z,98882.03
2023-01-09T20:42:29.243Z,98881.22
2023-01-09T20:45:00.842Z,98879.56
2023-01-09T20:47:31.525Z,98883.25
2023-01-09T20:50:04.408Z,98881.81
2023-01-09T20:52:33.273Z,98885.28
2023-01-09T20:55:01.979Z,98873.47
2023-01-09T20:57:30.430Z,98877.78
2023-01-09T21:00:00.192Z,98888.16
2023-01-09T21:02:28.575Z,98891.81
2023-01-09T21:04:57.140Z,98884.72
2023-01-09T21:07:26.185Z,98894.69
2023-01-09T21:09:54.470Z,98893.03
2023-01-09T21:12:33.795Z,98897.13
2023-01-09T21:15:08.382Z,98896.75
2023-01-09T21:17:39.415Z,98898.97
2023-01-09T21:20:14.111Z,98897.13
2023-01-09T21:22:42.613Z,98890.81
2023-01-09T21:25:17.188Z,98898.97
2023-01-09T21:27:50.616Z,98899.78
2023-01-09T21:30:22.273Z,98904.88
2023-01-09T21:32:50.557Z,98897.13
2023-01-09T21:35:22.827Z,98890.63
2023-01-09T21:37:51.786Z,98888.78
2023-01-09T21:40:21.597Z,98890.81
2023-01-09T21:43:12.535Z,98898.19
2023-01-09T21:45:59.847Z,98883.47
2023-01-09T21:48:28.178Z,98898.38
2023-01-09T21:50:57.535Z,98897.16
2023-01-09T21:53:27.115Z,98905.53
2023-01-09T21:55:55.817Z,98900.41
2023-01-09T21:58:24.260Z,98902.25
2023-01-09T22:01:00.828Z,98905.53
2023-01-09T22:03:31.279Z,98902.88
2023-01-09T22:06:07.747Z,98899.81
2023-01-09T22:08:37.928Z,98913.88
2023-01-09T22:11:06.964Z,98913.69
2023-01-09T22:13:35.336Z,98903.06
2023-01-09T22:16:33.214Z,98910.00
2023-01-09T22:19:01.626Z,98912.88
2023-01-09T22:21:30.308Z,98912.06
2023-01-09T22:24:01.787Z,98913.47
2023-01-09T22:26:31.186Z,98916.91
2023-01-09T22:28:59.538Z,98922.84
2023-01-09T22:31:30.739Z,98926.09
2023-01-09T22:34:02.728Z,98930.38
2023-01-09T22:36:31.939Z,98935.69
2023-01-09T22:39:02.242Z,98926.50
2023-01-09T22:41:31.352Z,98925.28
2023-01-09T22:44:00.984Z,98928.75
2023-01-09T22:46:30.088Z,98929.59
2023-01-09T22:49:01.295Z,98938.94
2023-01-09T22:51:33.759Z,98934.03
2023-01-09T22:54:08.793Z,98932.22
2023-01-09T22:56:38.716Z,98937.91
2023-01-09T22:59:09.117Z,98934.44
2023-01-09T23:01:37.779Z,98944.88
2023-01-09T23:04:14.254Z,98935.88
2023-01-09T23:06:44.867Z,98950.78
2023-01-09T23:09:13.860Z,98950.16
2023-01-09T23:11:59.458Z,98950.38
2023-01-09T23:14:29.231Z,98956.91
2023-01-09T23:16:58.650Z,98957.72
2023-01-09T23:19:30.810Z,98949.97
2023-01-09T23:22:00.217Z,98961.81
2023-01-09T23:24:32.566Z,98953.63
2023-01-09T23:27:01.192Z,98962.81
2023-01-09T23:29:32.113Z,98951.63
2023-01-09T23:32:02.139Z,98958.13
2023-01-09T23:34:33.711Z,98964.44
2023-01-09T23:37:04.423Z,98969.38
2023-01-09T23:39:33.106Z,98970.59
2023-01-09T23:42:24.168Z,98968.38
2023-01-09T23:44:52.533Z,98982.47
2023-01-09T23:47:22.160Z,98979.19
2023-01-09T23:49:52.421Z,98983.66
2023-01-09T23:52:23.568Z,98986.53
2023-01-09T23:54:52.132Z,98985.50
2023-01-09T23:57:22.238Z,98968.38
2023-01-09T23:59:53.716Z,98984.88
